Time;durP1;ratioP1;P1;durP2;ratioP2;P2;SDS_P1;SDS_P2;PMS_P1;PMS_P2;Temp;Humidity;BMP_temperature;BMP_pressure;BME280_temperature;BME280_humidity;BME280_pressure;Samples;Min_cycle;Max_cycle;Signal;HPM_P1;HPM_P2
2021/01/07 00:00:06;;;;;;;24.12;13.28;;;;;;;1.14;100.00;99069.67;1692416;85;21150;-71
2021/01/07 00:02:35;;;;;;;26.07;13.78;;;;;;;1.19;100.00;99066.09;1691508;85;21335;-72
2021/01/07 00:05:06;;;;;;;29.50;16.57;;;;;;;1.23;100.00;99078.17;1692242;85;21327;-71
2021/01/07 00:07:34;;;;;;;32.48;16.17;;;;;;;1.26;100.00;99088.48;1692146;84;21181;-71
2021/01/07 00:10:05;;;;;;;27.32;15.65;;;;;;;1.32;100.00;99072.65;1692513;85;21154;-72
2021/01/07 00:12:33;;;;;;;26.30;13.62;;;;;;;1.38;100.00;99072.56;1692160;85;21150;-71
2021/01/07 00:15:00;;;;;;;26.33;14.40;;;;;;;1.29;100.00;99088.63;1692148;84;21320;-66
2021/01/07 00:17:28;;;;;;;27.00;14.25;;;;;;;1.21;100.00;99069.59;1692394;85;21529;-71
2021/01/07 00:19:55;;;;;;;24.70;13.80;;;;;;;1.18;100.00;99071.98;1692139;85;21162;-70
2021/01/07 00:22:23;;;;;;;22.65;11.97;;;;;;;1.13;100.00;99059.45;1692410;85;21300;-69
2021/01/07 00:24:50;;;;;;;19.30;10.15;;;;;;;1.10;100.00;99066.52;1692419;85;21560;-72
2021/01/07 00:27:18;;;;;;;20.62;10.72;;;;;;;1.08;100.00;99056.67;1692252;85;21237;-73
2021/01/07 00:29:46;;;;;;;30.20;13.78;;;;;;;1.05;100.00;99067.95;1692189;85;21540;-71
2021/01/07 00:32:15;;;;;;;23.95;11.38;;;;;;;1.05;100.00;99046.36;1692361;85;21174;-70
2021/01/07 00:34:43;;;;;;;20.52;10.85;;;;;;;1.10;100.00;99045.33;1692303;85;21331;-70
2021/01/07 00:37:10;;;;;;;22.45;12.37;;;;;;;1.12;100.00;99049.69;1692129;85;21150;-69
2021/01/07 00:39:38;;;;;;;22.77;12.50;;;;;;;1.10;100.00;99066.52;1692108;85;21170;-71
2021/01/07 00:42:06;;;;;;;24.47;12.73;;;;;;;1.13;100.00;99065.80;1692272;85;21153;-72
2021/01/07 00:44:33;;;;;;;25.40;12.73;;;;;;;1.17;100.00;99072.76;1692121;85;21162;-70
2021/01/07 00:47:01;;;;;;;27.22;13.65;;;;;;;1.16;100.00;99068.48;1692222;85;21181;-70
2021/01/07 00:49:29;;;;;;;22.95;12.65;;;;;;;1.13;100.00;99056.50;1692362;85;21178;-74
2021/01/07 00:51:57;;;;;;;25.65;13.68;;;;;;;1.16;100.00;99046.88;1666796;85;21707;-68
2021/01/07 00:54:24;;;;;;;25.02;11.88;;;;;;;1.13;100.00;99058.17;1692136;85;21162;-68
2021/01/07 00:56:52;;;;;;;23.62;12.18;;;;;;;1.10;100.00;99041.52;1692322;85;21181;-70
2021/01/07 00:59:22;;;;;;;24.07;12.63;;;;;;;1.07;100.00;99044.37;1691769;85;21644;-77
2021/01/07 01:01:50;;;;;;;26.68;14.33;;;;;;;1.10;100.00;99045.33;1692231;85;21165;-69
2021/01/07 01:04:18;;;;;;;29.75;13.55;;;;;;;1.11;100.00;99040.30;1692113;85;21157;-73
2021/01/07 01:06:45;;;;;;;30.72;16.00;;;;;;;1.14;100.00;99054.82;1692307;85;21287;-69
2021/01/07 01:09:14;;;;;;;28.15;14.58;;;;;;;1.14;100.00;99051.02;1692412;85;21631;-70
2021/01/07 01:11:44;;;;;;;34.78;16.32;;;;;;;1.16;100.00;99032.91;1692113;85;21165;-74
2021/01/07 01:14:15;;;;;;;31.50;16.20;;;;;;;1.18;100.00;99032.18;1692371;85;21169;-70
2021/01/07 01:16:45;;;;;;;31.27;15.33;;;;;;;1.22;100.00;99029.00;1692640;85;21158;-68
2021/01/07 01:19:15;;;;;;;35.35;16.60;;;;;;;1.23;100.00;99022.24;1691799;85;21214;-67
2021/01/07 01:21:43;;;;;;;29.80;15.88;;;;;;;1.27;100.00;99019.03;1692132;85;21170;-69
2021/01/07 01:24:11;;;;;;;33.67;17.05;;;;;;;1.30;100.00;99025.56;1692215;85;21299;-69
2021/01/07 01:26:39;;;;;;;34.63;17.65;;;;;;;1.32;100.00;99026.48;1692447;85;21528;-69
2021/01/07 01:29:07;;;;;;;38.58;19.27;;;;;;;1.35;100.00;99024.48;1692186;85;21170;-70
2021/01/07 01:31:41;;;;;;;35.28;17.32;;;;;;;1.36;100.00;99016.08;1692230;85;21295;-70
2021/01/07 01:34:08;;;;;;;32.03;17.42;;;;;;;1.35;100.00;99005.05;1692085;85;21243;-69
2021/01/07 01:36:36;;;;;;;37.03;19.02;;;;;;;1.38;100.00;99006.45;1692351;85;21165;-70
2021/01/07 01:39:04;;;;;;;42.62;20.32;;;;;;;1.38;100.00;98997.56;1692499;85;21185;-74
2021/01/07 01:41:48;;;;;;;37.85;17.27;;;;;;;1.41;100.00;99000.64;1692227;85;21177;-75
2021/01/07 01:44:18;;;;;;;38.53;19.55;;;;;;;1.44;100.00;98994.02;1691869;85;21182;-68
2021/01/07 01:46:46;;;;;;;32.25;17.37;;;;;;;1.44;100.00;98990.61;1692207;85;21189;-67
2021/01/07 01:49:15;;;;;;;33.73;18.05;;;;;;;1.42;100.00;98987.13;1692319;85;21707;-71
2021/01/07 01:51:42;;;;;;;33.73;16.95;;;;;;;1.39;100.00;98975.13;1692410;85;21333;-66
2021/01/07 01:54:10;;;;;;;39.03;18.57;;;;;;;1.39;100.00;98980.63;1692477;85;21565;-70
2021/01/07 01:56:40;;;;;;;34.40;18.07;;;;;;;1.37;100.00;98965.28;1693019;85;21391;-72
2021/01/07 01:59:08;;;;;;;38.92;19.57;;;;;;;1.37;100.00;98966.55;1689156;85;21181;-69
2021/01/07 02:01:36;;;;;;;40.75;21.75;;;;;;;1.39;100.00;98966.64;1687426;85;21190;-71
2021/01/07 02:04:06;;;;;;;40.55;21.87;;;;;;;1.44;100.00;98962.23;1687354;84;21739;-69
2021/01/07 02:06:36;;;;;;;38.63;19.77;;;;;;;1.47;100.00;98947.52;1686989;84;21182;-69
2021/01/07 02:09:07;;;;;;;36.90;18.80;;;;;;;1.50;100.00;98939.66;1687203;85;21307;-71
2021/01/07 02:11:35;;;;;;;38.45;20.00;;;;;;;1.49;100.00;98944.66;1687511;85;21166;-70
2021/01/07 02:14:05;;;;;;;39.25;21.10;;;;;;;1.51;100.00;98931.22;1687171;85;21138;-71
2021/01/07 02:16:33;;;;;;;35.52;20.15;;;;;;;1.57;100.00;98929.75;1687390;84;21574;-67
2021/01/07 02:19:00;;;;;;;38.30;19.55;;;;;;;1.57;100.00;98922.98;1687313;85;21545;-71
2021/01/07 02:21:28;;;;;;;35.78;19.20;;;;;;;1.58;100.00;98921.31;1687428;85;21170;-75
2021/01/07 02:23:56;;;;;;;34.10;18.37;;;;;;;1.54;100.00;98912.68;1687479;85;21324;-68
2021/01/07 02:26:24;;;;;;;39.48;20.77;;;;;;;1.50;100.00;98911.68;1687125;85;21165;-70
2021/01/07 02:28:51;;;;;;;41.05;20.40;;;;;;;1.49;100.00;98908.65;1687922;85;21178;-67
2021/01/07 02:31:19;;;;;;;35.50;17.70;;;;;;;1.50;100.00;98914.23;1688074;85;21202;-72
2021/01/07 02:33:47;;;;;;;36.23;16.97;;;;;;;1.44;100.00;98911.38;1687896;84;21340;-68
2021/01/07 02:36:16;;;;;;;35.17;18.67;;;;;;;1.43;100.00;98919.83;1687634;84;21587;-72
2021/01/07 02:38:44;;;;;;;31.93;18.23;;;;;;;1.43;100.00;98898.62;1687359;85;21191;-69
2021/01/07 02:41:12;;;;;;;31.87;17.87;;;;;;;1.47;100.00;98906.43;1687132;85;21182;-68
2021/01/07 02:43:40;;;;;;;33.55;18.45;;;;;;;1.47;100.00;98887.77;1687428;85;21158;-72
2021/01/07 02:46:08;;;;;;;33.98;20.40;;;;;;;1.47;100.00;98884.81;1687263;85;21170;-72
2021/01/07 02:48:36;;;;;;;41.80;22.32;;;;;;;1.48;100.00;98882.77;1687124;84;21170;-69
2021/01/07 02:51:04;;;;;;;36.95;20.62;;;;;;;1.51;100.00;98879.08;1687301;84;21162;-71
2021/01/07 02:53:33;;;;;;;46.08;21.17;;;;;;;1.56;100.00;98877.16;1687311;85;21353;-71
2021/01/07 02:56:01;;;;;;;38.20;18.32;;;;;;;1.60;100.00;98880.29;1687142;85;21316;-69
2021/01/07 02:58:32;;;;;;;43.80;20.97;;;;;;;1.59;100.00;98869.66;1687049;84;21303;-71
2021/01/07 03:00:59;;;;;;;35.08;16.93;;;;;;;1.51;100.00;98870.18;1687442;85;21166;-68
2021/01/07 03:03:27;;;;;;;33.70;18.75;;;;;;;1.49;100.00;98892.53;1687366;85;21588;-70
2021/01/07 03:05:54;;;;;;;38.17;18.75;;;;;;;1.48;100.00;98874.27;1687264;84;21153;-66
2021/01/07 03:08:22;;;;;;;35.23;18.05;;;;;;;1.46;100.00;98875.45;1687188;85;21311;-72
2021/01/07 03:10:50;;;;;;;40.43;19.45;;;;;;;1.45;100.00;98873.73;1687370;84;21165;-65
2021/01/07 03:13:17;;;;;;;41.90;19.82;;;;;;;1.46;100.00;98867.83;1687117;85;21158;-70
2021/01/07 03:15:45;;;;;;;49.05;21.37;;;;;;;1.47;100.00;98867.42;1687100;84;21166;-70
2021/01/07 03:18:12;;;;;;;38.90;18.40;;;;;;;1.44;100.00;98864.34;1687375;85;21597;-73
2021/01/07 03:20:40;;;;;;;35.38;19.60;;;;;;;1.46;100.00;98852.58;1687063;85;21186;-73
2021/01/07 03:23:07;;;;;;;39.38;16.77;;;;;;;1.46;100.00;98847.89;1687334;84;21707;-71
2021/01/07 03:25:35;;;;;;;47.33;18.98;;;;;;;1.45;100.00;98836.86;1687086;85;21169;-65
2021/01/07 03:28:03;;;;;;;37.98;19.85;;;;;;;1.45;100.00;98833.05;1687086;85;21315;-70
2021/01/07 03:30:31;;;;;;;38.48;17.05;;;;;;;1.50;100.00;98831.58;1687160;85;21182;-68
2021/01/07 03:32:59;;;;;;;33.63;15.53;;;;;;;1.51;100.00;98837.13;1687099;84;21323;-70
2021/01/07 03:35:26;;;;;;;35.20;17.65;;;;;;;1.48;100.00;98824.69;1687086;85;21292;-73
2021/01/07 03:37:54;;;;;;;32.58;17.85;;;;;;;1.47;100.00;98835.64;1687074;84;21147;-68
2021/01/07 03:40:22;;;;;;;34.15;18.23;;;;;;;1.49;100.00;98829.82;1687243;84;21177;-77
2021/01/07 03:42:49;;;;;;;33.28;18.20;;;;;;;1.51;100.00;98821.86;1687389;85;21679;-70
2021/01/07 03:45:17;;;;;;;35.50;18.82;;;;;;;1.52;100.00;98821.05;1687288;85;21292;-75
2021/01/07 03:47:45;;;;;;;31.30;15.75;;;;;;;1.55;100.00;98824.53;1687229;84;21138;-71
2021/01/07 03:50:13;;;;;;;30.75;16.42;;;;;;;1.54;100.00;98813.91;1687058;85;21256;-70
2021/01/07 03:52:40;;;;;;;30.68;16.45;;;;;;;1.49;100.00;98815.83;1687250;84;21174;-74
2021/01/07 03:55:11;;;;;;;29.18;16.35;;;;;;;1.46;100.00;98805.53;1687275;84;21195;-71
2021/01/07 03:57:39;;;;;;;30.37;17.07;;;;;;;1.48;100.00;98807.75;1687308;85;21142;-74
2021/01/07 04:00:07;;;;;;;26.80;14.73;;;;;;;1.46;100.00;98794.09;1690820;85;21612;-71
2021/01/07 04:02:36;;;;;;;28.73;16.82;;;;;;;1.45;100.00;98797.45;1692022;85;21180;-74
2021/01/07 04:05:06;;;;;;;28.38;16.48;;;;;;;1.44;100.00;98806.27;1692027;85;21186;-70
2021/01/07 04:07:33;;;;;;;20.60;12.40;;;;;;;1.44;100.00;98802.45;1692033;85;21193;-72
2021/01/07 04:10:02;;;;;;;26.68;15.65;;;;;;;1.43;100.00;98803.27;1692002;85;21604;-69
2021/01/07 04:12:30;;;;;;;28.23;14.60;;;;;;;1.38;100.00;98790.34;1691997;85;21308;-71
2021/01/07 04:15:01;;;;;;;26.33;15.63;;;;;;;1.40;100.00;98786.20;1691909;83;21287;-68
2021/01/07 04:17:30;;;;;;;30.82;18.62;;;;;;;1.44;100.00;98784.66;1692204;85;21146;-67
2021/01/07 04:19:57;;;;;;;31.82;16.45;;;;;;;1.47;100.00;98785.64;1666963;85;21181;-72
2021/01/07 04:22:26;;;;;;;28.07;17.25;;;;;;;1.47;100.00;98789.46;1692441;85;21564;-68
2021/01/07 04:24:54;;;;;;;25.82;15.00;;;;;;;1.45;100.00;98792.73;1692365;85;21213;-71
2021/01/07 04:27:22;;;;;;;31.70;16.32;;;;;;;1.45;100.00;98797.83;1692384;85;21620;-66
2021/01/07 04:29:49;;;;;;;28.73;17.17;;;;;;;1.46;100.00;98800.45;1692461;85;21206;-69
2021/01/07 04:32:17;;;;;;;30.35;18.80;;;;;;;1.46;100.00;98796.63;1692341;85;21240;-67
2021/01/07 04:34:45;;;;;;;29.35;17.20;;;;;;;1.48;100.00;98795.44;1692302;85;21312;-66
2021/01/07 04:37:13;;;;;;;34.25;19.60;;;;;;;1.54;100.00;98796.10;1692448;85;21606;-69
2021/01/07 04:39:40;;;;;;;36.30;20.57;;;;;;;1.61;100.00;98810.84;1692221;85;21149;-66
2021/01/07 04:42:09;;;;;;;33.53;19.10;;;;;;;1.66;100.00;98818.27;1692384;85;21162;-68
2021/01/07 04:44:38;;;;;;;30.23;17.55;;;;;;;1.63;100.00;98814.29;1692141;85;21181;-73
2021/01/07 04:47:06;;;;;;;29.67;16.67;;;;;;;1.63;100.00;98809.20;1692358;85;21166;-72
2021/01/07 04:49:34;;;;;;;37.03;18.55;;;;;;;1.64;100.00;98809.69;1692133;85;21158;-68
2021/01/07 04:52:02;;;;;;;29.95;16.85;;;;;;;1.61;100.00;98795.58;1692330;85;21227;-68
2021/01/07 04:54:30;;;;;;;31.55;18.60;;;;;;;1.60;100.00;98803.98;1692378;85;21576;-68
2021/01/07 04:56:58;;;;;;;40.05;19.27;;;;;;;1.54;100.00;98789.75;1692197;85;21193;-68
2021/01/07 04:59:26;;;;;;;33.15;20.12;;;;;;;1.54;100.00;98791.02;1692216;85;21580;-68
2021/01/07 05:01:54;;;;;;;34.03;19.10;;;;;;;1.57;100.00;98789.87;1692297;85;21170;-71
2021/01/07 05:04:22;;;;;;;29.87;18.05;;;;;;;1.56;100.00;98767.80;1692106;85;21190;-69
2021/01/07 05:06:50;;;;;;;34.18;18.25;;;;;;;1.57;100.00;98775.48;1692223;85;21204;-69
2021/01/07 05:09:17;;;;;;;26.57;16.48;;;;;;;1.56;100.00;98777.97;1692358;85;21584;-69
2021/01/07 05:11:45;;;;;;;29.00;16.52;;;;;;;1.54;100.00;98755.42;1692330;85;21327;-69
2021/01/07 05:14:13;;;;;;;29.23;15.88;;;;;;;1.54;100.00;98770.67;1692096;85;21165;-71
2021/01/07 05:16:40;;;;;;;28.38;17.35;;;;;;;1.52;100.00;98757.47;1692124;85;21291;-70
2021/01/07 05:19:08;;;;;;;29.92;17.00;;;;;;;1.55;100.00;98752.05;1692057;85;21314;-65
2021/01/07 05:21:36;;;;;;;37.28;18.50;;;;;;;1.62;100.00;98745.16;1692373;85;21283;-69
2021/01/07 05:24:06;;;;;;;29.48;16.45;;;;;;;1.67;100.00;98750.05;1692129;85;21672;-67
2021/01/07 05:26:34;;;;;;;25.52;15.28;;;;;;;1.63;100.00;98755.41;1692325;85;21633;-71
2021/01/07 05:29:03;;;;;;;24.43;14.43;;;;;;;1.64;100.00;98751.19;1692300;85;21603;-69
2021/01/07 05:31:30;;;;;;;29.50;15.90;;;;;;;1.66;100.00;98747.05;1692240;85;21170;-67
2021/01/07 05:33:58;;;;;;;27.22;14.93;;;;;;;1.63;100.00;98748.16;1692284;85;21166;-71
2021/01/07 05:36:31;;;;;;;22.30;12.20;;;;;;;1.69;100.00;98752.25;1692231;85;21185;-68
2021/01/07 05:39:05;;;;;;;22.62;13.05;;;;;;;1.65;100.00;98737.25;1692900;84;21210;-65
2021/01/07 05:41:34;;;;;;;25.68;14.33;;;;;;;1.64;100.00;98727.89;1709275;84;21174;-72
2021/01/07 05:44:06;;;;;;;25.00;14.75;;;;;;;1.65;100.00;98723.26;1709138;84;21313;-69
2021/01/07 05:46:35;;;;;;;23.90;14.00;;;;;;;1.66;100.00;98731.38;1709142;84;21308;-69
2021/01/07 05:49:03;;;;;;;19.60;10.88;;;;;;;1.63;100.00;98736.72;1709134;84;21324;-67
2021/01/07 05:51:32;;;;;;;19.92;11.55;;;;;;;1.65;100.00;98736.38;1709326;84;21316;-65
2021/01/07 05:54:00;;;;;;;22.15;13.13;;;;;;;1.62;100.00;98735.85;1709244;84;21134;-67
2021/01/07 05:56:32;;;;;;;20.92;11.63;;;;;;;1.64;100.00;98730.44;1709424;84;21131;-71
2021/01/07 05:58:59;;;;;;;23.07;12.65;;;;;;;1.63;100.00;98730.36;1685213;84;21177;-64
2021/01/07 06:01:28;;;;;;;20.48;12.40;;;;;;;1.64;100.00;98725.76;1706348;83;21340;-71
2021/01/07 06:03:56;;;;;;;24.63;14.13;;;;;;;1.62;100.00;98719.32;1706365;83;21304;-71
2021/01/07 06:06:24;;;;;;;21.48;12.55;;;;;;;1.64;100.00;98721.94;1706467;84;21308;-73
2021/01/07 06:08:55;;;;;;;27.22;13.93;;;;;;;1.69;100.00;98718.78;1706548;83;21332;-65
2021/01/07 06:11:25;;;;;;;23.27;13.32;;;;;;;1.70;100.00;98725.59;1706468;83;21471;-70
2021/01/07 06:13:54;;;;;;;23.87;13.62;;;;;;;1.72;100.00;98721.85;1706466;83;21174;-71
2021/01/07 06:16:24;;;;;;;21.17;13.18;;;;;;;1.74;100.00;98720.25;1706338;83;21331;-69
2021/01/07 06:18:55;;;;;;;22.42;11.90;;;;;;;1.75;100.00;98730.88;1706309;84;21166;-69
2021/01/07 06:21:27;;;;;;;26.93;12.90;;;;;;;1.78;100.00;98719.58;1706538;84;21277;-73
2021/01/07 06:23:56;;;;;;;20.32;11.97;;;;;;;1.78;100.00;98717.04;1673801;84;21161;-66
2021/01/07 06:26:29;;;;;;;20.62;11.43;;;;;;;1.82;100.00;98712.94;1678055;85;21156;-71
2021/01/07 06:28:59;;;;;;;26.23;12.88;;;;;;;1.86;100.00;98727.13;1677510;84;21162;-71
2021/01/07 06:31:35;;;;;;;25.15;12.55;;;;;;;1.85;100.00;98724.09;1677914;84;21150;-67
2021/01/07 06:34:04;;;;;;;19.32;11.38;;;;;;;1.83;100.00;98719.38;1678775;85;21537;-68
2021/01/07 06:36:42;;;;;;;18.90;11.45;;;;;;;1.81;100.00;98734.97;1681087;85;21243;-72
2021/01/07 06:39:09;;;;;;;26.90;13.25;;;;;;;1.83;100.00;98728.28;1677751;85;21699;-72
2021/01/07 06:41:38;;;;;;;24.82;13.60;;;;;;;1.86;100.00;98729.67;1677414;83;21181;-71
2021/01/07 06:44:06;;;;;;;19.95;11.48;;;;;;;1.85;100.00;98719.01;1683741;85;21584;-69
2021/01/07 06:46:42;;;;;;;22.22;13.70;;;;;;;1.86;100.00;98711.00;1684109;85;21335;-72
2021/01/07 06:49:30;;;;;;;25.60;14.07;;;;;;;1.88;100.00;98715.34;1678481;84;21170;-73
2021/01/07 06:52:05;;;;;;;22.75;14.05;;;;;;;1.90;100.00;98714.11;1684350;84;21166;-70
2021/01/07 06:54:36;;;;;;;23.52;13.60;;;;;;;1.93;100.00;98716.40;1622678;87;21184;-73
2021/01/07 06:57:08;;;;;;;28.12;14.70;;;;;;;1.94;100.00;98713.03;1684458;85;21246;-69
2021/01/07 06:59:36;;;;;;;25.77;14.35;;;;;;;1.92;100.00;98705.73;1669124;84;21675;-72
2021/01/07 07:02:06;;;;;;;34.05;16.85;;;;;;;1.94;100.00;98706.67;1709244;84;21200;-71
2021/01/07 07:04:34;;;;;;;32.90;18.62;;;;;;;1.97;100.00;98707.61;1710215;84;21188;-73
2021/01/07 07:07:42;;;;;;;30.08;16.62;;;;;;;2.00;100.00;98700.09;1710314;84;21299;-71
2021/01/07 07:10:21;;;;;;;31.48;17.75;;;;;;;2.02;100.00;98699.77;1704463;83;21184;-72
2021/01/07 07:12:51;;;;;;;39.85;20.10;;;;;;;2.04;100.00;98701.97;1710107;84;21302;-67
2021/01/07 07:15:25;;;;;;;46.83;22.40;;;;;;;2.05;100.00;98688.42;1710071;84;21173;-68
2021/01/07 07:17:55;;;;;;;41.18;20.08;;;;;;;2.07;100.00;98691.91;1710253;84;21177;-69
2021/01/07 07:20:25;;;;;;;49.08;22.37;;;;;;;2.11;100.00;98689.92;1710217;84;21172;-70
2021/01/07 07:22:54;;;;;;;44.80;21.55;;;;;;;2.14;100.00;98686.25;1710513;84;21189;-73
2021/01/07 07:25:26;;;;;;;51.33;23.67;;;;;;;2.15;100.00;98671.02;1710087;84;21196;-70
2021/01/07 07:28:04;;;;;;;45.73;22.87;;;;;;;2.11;100.00;98682.30;1710466;84;21584;-65
2021/01/07 07:30:33;;;;;;;48.83;23.20;;;;;;;2.13;100.00;98665.41;1710339;84;21705;-71
2021/01/07 07:33:02;;;;;;;53.38;23.92;;;;;;;2.16;100.00;98679.52;1710345;84;21709;-71
2021/01/07 07:35:37;;;;;;;53.28;22.30;;;;;;;2.17;100.00;98660.91;1710327;84;21709;-71
2021/01/07 07:38:11;;;;;;;46.53;21.90;;;;;;;2.19;100.00;98651.67;1710064;84;21172;-68
2021/01/07 07:40:41;;;;;;;51.92;21.60;;;;;;;2.20;100.00;98648.30;1709997;84;21630;-72
2021/01/07 07:43:09;;;;;;;48.35;22.37;;;;;;;2.22;100.00;98656.88;1710336;84;21177;-71
2021/01/07 07:45:38;;;;;;;58.10;24.98;;;;;;;2.23;100.00;98647.14;1710325;84;21181;-71
2021/01/07 07:48:08;;;;;;;46.25;23.90;;;;;;;2.22;100.00;98645.83;1710095;84;21201;-72
2021/01/07 07:50:36;;;;;;;42.85;21.35;;;;;;;2.25;100.00;98635.75;1710313;84;21323;-71
2021/01/07 07:53:14;;;;;;;44.93;21.55;;;;;;;2.25;100.00;98651.03;1710161;84;21200;-67
2021/01/07 07:55:44;;;;;;;45.23;21.23;;;;;;;2.26;100.00;98645.98;1710255;84;21275;-68
2021/01/07 07:58:14;;;;;;;44.88;21.40;;;;;;;2.25;100.00;98642.98;1710061;84;21385;-72
2021/01/07 08:00:51;;;;;;;43.98;20.68;;;;;;;2.25;100.00;98631.52;1707834;84;21690;-68
2021/01/07 08:03:30;;;;;;;37.10;18.82;;;;;;;2.26;100.00;98622.20;1701370;83;21567;-69
2021/01/07 08:06:00;;;;;;;45.65;21.05;;;;;;;2.29;100.00;98628.30;1705722;84;21200;-63
2021/01/07 08:08:31;;;;;;;38.70;19.40;;;;;;;2.28;100.00;98624.00;1707127;84;21153;-65
2021/01/07 08:11:01;;;;;;;41.90;19.75;;;;;;;2.26;100.00;98617.97;1707425;84;21280;-65
2021/01/07 08:13:30;;;;;;;31.57;17.62;;;;;;;2.27;100.00;98617.18;1706542;84;21319;-66
2021/01/07 08:15:59;;;;;;;36.53;19.35;;;;;;;2.28;100.00;98612.95;1705158;84;21189;-66
2021/01/07 08:18:29;;;;;;;34.90;18.25;;;;;;;2.29;100.00;98613.02;1697351;84;21181;-72
2021/01/07 08:21:10;;;;;;;43.28;20.25;;;;;;;2.31;100.00;98603.73;1668796;85;21138;-72
2021/01/07 08:23:38;;;;;;;29.57;15.72;;;;;;;2.32;100.00;98606.77;1704881;84;21180;-67
2021/01/07 08:26:07;;;;;;;38.50;19.42;;;;;;;2.32;100.00;98600.81;1697621;84;21177;-65
2021/01/07 08:28:43;;;;;;;34.10;16.73;;;;;;;2.29;100.00;98599.02;1668733;86;21154;-69
2021/01/07 08:31:15;;;;;;;39.15;18.30;;;;;;;2.29;100.00;98593.92;1685420;85;21331;-68
2021/01/07 08:33:43;;;;;;;27.25;16.00;;;;;;;2.30;100.00;98590.55;1668840;86;21189;-69
2021/01/07 08:36:14;;;;;;;37.60;18.07;;;;;;;2.30;100.00;98600.73;1685455;85;21158;-66
2021/01/07 08:38:50;;;;;;;37.38;18.95;;;;;;;2.31;100.00;98582.50;1668838;86;21185;-71
2021/01/07 08:41:23;;;;;;;27.93;16.95;;;;;;;2.34;100.00;98582.61;1684136;85;21588;-69
2021/01/07 08:43:54;;;;;;;26.97;14.73;;;;;;;2.34;100.00;98583.51;1683446;85;21173;-69
2021/01/07 08:46:29;;;;;;;31.70;16.13;;;;;;;2.34;100.00;98570.78;1683854;85;21182;-70
2021/01/07 08:49:04;;;;;;;32.55;16.32;;;;;;;2.39;100.00;98565.83;1682893;85;21165;-67
2021/01/07 08:51:42;;;;;;;30.23;16.48;;;;;;;2.44;100.00;98563.45;1666489;84;21228;-74
2021/01/07 08:54:19;;;;;;;25.02;14.75;;;;;;;2.45;100.00;98560.98;1627874;87;21269;-69
2021/01/07 08:56:49;;;;;;;26.57;16.30;;;;;;;2.43;100.00;98549.00;1704704;84;21294;-70
2021/01/07 08:59:33;;;;;;;30.12;16.00;;;;;;;2.41;100.00;98554.02;1704520;84;21156;-68
2021/01/07 09:02:12;;;;;;;26.10;15.35;;;;;;;2.43;100.00;98545.18;1680162;85;21687;-71
2021/01/07 09:04:43;;;;;;;25.17;15.45;;;;;;;2.40;100.00;98549.76;1678417;83;21303;-71
2021/01/07 09:07:19;;;;;;;29.07;16.25;;;;;;;2.41;100.00;98548.07;1679242;84;21303;-66
2021/01/07 09:09:55;;;;;;;30.57;16.73;;;;;;;2.45;100.00;98533.38;1681456;85;21271;-69
2021/01/07 09:12:34;;;;;;;33.45;16.27;;;;;;;2.47;100.00;98527.91;1680609;85;21219;-69
2021/01/07 09:15:14;;;;;;;26.10;15.18;;;;;;;2.45;100.00;98520.64;1678747;84;21304;-70
2021/01/07 09:17:56;;;;;;;32.28;14.35;;;;;;;2.44;100.00;98508.70;1677263;84;21260;-68
2021/01/07 09:20:33;;;;;;;28.62;14.33;;;;;;;2.46;100.00;98510.91;1689498;85;21181;-67
2021/01/07 09:23:10;;;;;;;35.05;18.02;;;;;;;2.47;100.00;98506.26;1689820;85;21612;-70
2021/01/07 09:25:38;;;;;;;31.65;17.57;;;;;;;2.50;100.00;98498.75;1689785;85;21588;-72
2021/01/07 09:28:07;;;;;;;28.52;16.30;;;;;;;2.54;100.00;98495.06;1689587;84;21165;-67
2021/01/07 09:30:35;;;;;;;31.37;15.90;;;;;;;2.56;100.00;98488.77;1689638;85;21262;-70
2021/01/07 09:33:03;;;;;;;26.97;14.90;;;;;;;2.57;100.00;98482.84;1689878;85;21596;-67
2021/01/07 09:35:31;;;;;;;35.03;18.55;;;;;;;2.62;100.00;98481.36;1689824;84;21296;-68
2021/01/07 09:38:03;;;;;;;34.48;17.42;;;;;;;2.62;100.00;98460.98;1687684;84;21205;-70
2021/01/07 09:40:31;;;;;;;27.20;15.90;;;;;;;2.64;100.00;98473.75;1684134;84;21181;-74
2021/01/07 09:42:58;;;;;;;27.55;15.10;;;;;;;2.65;100.00;98469.99;1684384;85;21616;-70
2021/01/07 09:45:26;;;;;;;27.20;15.18;;;;;;;2.65;100.00;98447.48;1684145;84;21170;-72
2021/01/07 09:47:54;;;;;;;24.07;14.35;;;;;;;2.65;100.00;98441.11;1684367;84;21157;-69
2021/01/07 09:50:22;;;;;;;23.75;13.30;;;;;;;2.66;100.00;98438.59;1684103;84;21189;-68
2021/01/07 09:52:50;;;;;;;21.20;12.60;;;;;;;2.73;100.00;98448.18;1684137;85;21367;-67
2021/01/07 09:55:17;;;;;;;24.32;13.78;;;;;;;2.79;100.00;98421.62;1684354;84;21143;-72
2021/01/07 10:00:28;;;;;;;18.80;10.15;;;;;;;3.01;100.00;98413.41;1834224;77;22192;-70
2021/01/07 10:02:55;;;;;;;21.55;11.70;;;;;;;3.02;100.00;98407.48;1728893;83;21283;-72
2021/01/07 10:05:23;;;;;;;23.27;13.70;;;;;;;3.13;100.00;98402.71;1744934;81;21135;-71
2021/01/07 10:07:51;;;;;;;26.93;15.20;;;;;;;3.17;100.00;98395.63;1728905;81;21162;-72
2021/01/07 10:10:19;;;;;;;24.05;12.82;;;;;;;3.15;100.00;98409.59;1744736;82;21200;-67
2021/01/07 10:12:47;;;;;;;23.75;13.08;;;;;;;3.14;100.00;98387.48;1728775;82;21121;-71
2021/01/07 10:15:15;;;;;;;22.75;11.60;;;;;;;3.11;100.00;98400.55;1744888;81;21604;-72
2021/01/07 10:17:43;;;;;;;21.17;11.30;;;;;;;3.09;100.00;98397.94;1724294;83;21180;-67
2021/01/07 10:20:11;;;;;;;15.63;9.48;;;;;;;3.05;100.00;98379.53;1730680;81;21174;-69
2021/01/07 10:22:39;;;;;;;19.60;10.95;;;;;;;3.06;100.00;98380.42;1730754;81;21595;-70
2021/01/07 10:25:08;;;;;;;18.80;11.50;;;;;;;3.08;100.00;98380.93;1715096;84;21166;-70
2021/01/07 10:27:37;;;;;;;23.18;12.63;;;;;;;3.10;100.00;98388.19;1724464;82;21585;-69
2021/01/07 10:30:07;;;;;;;27.25;14.10;;;;;;;3.14;100.00;98355.61;1728669;83;21129;-67
2021/01/07 10:32:36;;;;;;;28.15;13.85;;;;;;;3.16;100.00;98343.78;1744711;81;21297;-70
2021/01/07 10:35:06;;;;;;;27.62;13.85;;;;;;;3.17;100.00;98340.40;1728834;83;21193;-70
2021/01/07 10:37:36;;;;;;;32.15;15.53;;;;;;;3.18;100.00;98332.33;1744742;82;21191;-67
2021/01/07 10:40:07;;;;;;;23.87;12.75;;;;;;;3.19;100.00;98324.75;1688525;83;21144;-70
2021/01/07 10:42:36;;;;;;;17.92;11.05;;;;;;;3.26;100.00;98339.41;1727349;82;21301;-70
2021/01/07 10:45:08;;;;;;;18.15;10.50;;;;;;;3.31;100.00;98316.98;1734947;81;21304;-71
2021/01/07 10:47:39;;;;;;;15.83;9.75;;;;;;;3.33;100.00;98319.17;1735049;83;21312;-72
2021/01/07 10:50:10;;;;;;;18.17;10.35;;;;;;;3.33;100.00;98319.17;1743258;82;21235;-69
2021/01/07 10:53:05;;;;;;;18.05;12.15;;;;;;;3.37;100.00;98309.11;1725119;82;21153;-68
2021/01/07 10:55:35;;;;;;;16.80;9.83;;;;;;;3.39;100.00;98304.07;1743501;81;21699;-70
2021/01/07 10:58:26;;;;;;;14.63;8.65;;;;;;;3.37;100.00;98303.16;1743628;82;21711;-70
2021/01/07 11:01:08;;;;;;;16.90;8.43;;;;;;;3.37;100.00;98290.41;1740444;82;21182;-69
2021/01/07 11:03:54;;;;;;;15.20;9.43;;;;;;;3.40;100.00;98282.42;1747446;82;21206;-67
2021/01/07 11:06:26;;;;;;;15.43;10.08;;;;;;;3.42;100.00;98282.47;1720970;83;21129;-68
2021/01/07 11:09:14;;;;;;;15.13;9.00;;;;;;;3.47;100.00;98268.16;1706771;83;21165;-70
2021/01/07 11:11:47;;;;;;;14.80;9.95;;;;;;;3.46;100.00;98263.86;1726607;81;21158;-69
2021/01/07 11:14:34;;;;;;;15.72;9.85;;;;;;;3.49;100.00;98267.80;1741484;81;21203;-67
2021/01/07 11:17:13;;;;;;;16.73;11.28;;;;;;;3.57;100.00;98255.25;1742238;82;21150;-71
2021/01/07 11:19:45;;;;;;;15.37;9.47;;;;;;;3.61;100.00;98260.48;1730965;82;21593;-69
2021/01/07 11:22:26;;;;;;;16.00;9.63;;;;;;;3.62;100.00;98241.79;1724849;82;21143;-67
2021/01/07 11:24:57;;;;;;;18.82;10.15;;;;;;;3.63;100.00;98251.16;1722256;81;21708;-70
2021/01/07 11:27:26;;;;;;;17.95;10.88;;;;;;;3.63;100.00;98260.09;1736430;82;21596;-71
2021/01/07 11:29:54;;;;;;;16.45;10.65;;;;;;;3.67;100.00;98231.72;1742890;81;21119;-63
2021/01/07 11:32:22;;;;;;;16.62;10.65;;;;;;;3.67;100.00;98224.92;1733312;82;21585;-67